Time;durP1;ratioP1;P1;durP2;ratioP2;P2;SDS_P1;SDS_P2;PMS_P1;PMS_P2;Temp;Humidity;BMP_temperature;BMP_pressure;BME280_temperature;BME280_humidity;BME280_pressure;Samples;Min_cycle;Max_cycle;Signal;HPM_P1;HPM_P2
2023/03/31 00:00:50;;;;;;;9.13;3.20;;;;;;;-4.49;60.14;98031.34;6229762;28;20072;-67
2023/03/31 00:04:00;;;;;;;6.88;3.70;;;;;;;-4.53;60.22;98031.28;6229751;28;20046;-67
2023/03/31 00:07:07;;;;;;;9.90;4.13;;;;;;;-4.51;60.35;98018.47;6230436;28;20450;-67
2023/03/31 00:10:11;;;;;;;9.18;3.70;;;;;;;-4.52;60.15;98007.31;6228519;28;20416;-68
2023/03/31 00:13:18;;;;;;;14.20;4.15;;;;;;;-4.55;60.27;98004.72;6231103;28;20051;-66
2023/03/31 00:16:19;;;;;;;7.85;2.85;;;;;;;-4.66;60.56;98014.00;6230421;28;20128;-67
2023/03/31 00:19:27;;;;;;;6.82;3.05;;;;;;;-4.64;60.40;98006.28;6230685;28;20033;-67
2023/03/31 00:22:37;;;;;;;8.35;3.30;;;;;;;-4.68;60.73;98019.94;6229312;28;20038;-67
2023/03/31 00:25:43;;;;;;;7.75;2.92;;;;;;;-4.70;60.70;98025.03;6230478;28;20041;-66
2023/03/31 00:28:50;;;;;;;20.70;7.70;;;;;;;-4.71;60.78;98018.19;6232516;28;20045;-67
2023/03/31 00:31:54;;;;;;;10.35;3.67;;;;;;;-4.66;60.66;98023.41;6230510;28;20092;-67
2023/03/31 00:34:58;;;;;;;5.43;3.30;;;;;;;-4.74;60.94;98031.84;6230792;28;20037;-66
2023/03/31 00:38:04;;;;;;;9.77;3.85;;;;;;;-4.74;60.96;98026.72;6230121;28;20064;-66
2023/03/31 00:41:08;;;;;;;7.53;3.60;;;;;;;-4.82;61.19;98012.91;6228119;28;20050;-67
2023/03/31 00:44:12;;;;;;;;;;;;;;;-4.80;61.01;98000.09;6231183;28;20037;-67
2023/03/31 00:47:19;;;;;;;13.23;4.70;;;;;;;-4.80;61.07;98005.22;6229408;28;20375;-67
2023/03/31 00:50:28;;;;;;;7.93;3.70;;;;;;;-4.84;61.25;97999.19;6230073;28;20038;-68
2023/03/31 00:53:33;;;;;;;16.92;3.95;;;;;;;-4.82;61.14;98002.63;6234548;28;20056;-66
2023/03/31 00:56:42;;;;;;;12.85;3.42;;;;;;;-4.85;61.59;98002.59;6232582;28;20069;-66
2023/03/31 00:59:51;;;;;;;10.02;3.75;;;;;;;-4.87;61.51;98006.88;6229588;28;20054;-65
2023/03/31 01:02:58;;;;;;;8.13;2.83;;;;;;;-4.90;61.90;98003.38;6228648;28;20057;-66
2023/03/31 01:06:09;;;;;;;10.35;3.63;;;;;;;-4.91;61.92;98006.78;6228370;28;20046;-67
2023/03/31 01:09:15;;;;;;;9.70;3.78;;;;;;;-4.81;61.79;98004.38;6230561;28;20053;-67
2023/03/31 01:12:24;;;;;;;10.07;3.17;;;;;;;-4.80;61.54;98013.78;6231376;28;20446;-67
2023/03/31 01:15:27;;;;;;;9.35;2.90;;;;;;;-4.92;62.05;97993.09;6233950;28;20510;-67
2023/03/31 01:18:35;;;;;;;10.27;3.20;;;;;;;-4.84;62.02;98006.00;6235222;28;20040;-66
2023/03/31 01:22:01;;;;;;;5.43;2.40;;;;;;;-4.77;61.91;97989.88;6230513;28;20076;-66
2023/03/31 01:25:33;;;;;;;9.23;3.03;;;;;;;-4.56;61.97;97995.31;6230664;28;20045;-67
2023/03/31 01:28:51;;;;;;;9.00;3.17;;;;;;;-4.40;61.18;97996.34;6230294;28;20045;-67
2023/03/31 01:32:33;;;;;;;7.38;3.05;;;;;;;-4.34;61.62;97985.25;6226764;28;20538;-67
2023/03/31 01:35:52;;;;;;;6.40;3.13;;;;;;;-4.42;61.30;97982.59;6241869;28;20041;-67
2023/03/31 01:39:33;;;;;;;9.60;3.22;;;;;;;-4.53;61.42;97977.34;6240862;28;20041;-67
2023/03/31 01:42:55;;;;;;;7.00;3.30;;;;;;;-4.54;61.94;97983.31;6241783;28;20049;-67
2023/03/31 01:46:28;;;;;;;10.05;3.60;;;;;;;-4.57;62.03;97982.41;6239251;28;20045;-67
2023/03/31 01:49:49;;;;;;;6.82;3.03;;;;;;;-4.67;62.01;97966.03;6236077;28;20550;-67
2023/03/31 01:53:11;;;;;;;11.10;3.13;;;;;;;-4.64;61.94;97976.34;6239229;28;20568;-67
2023/03/31 01:56:36;;;;;;;8.85;4.30;;;;;;;-4.58;62.39;97990.97;6239905;28;20152;-67
2023/03/31 01:59:45;;;;;;;;;;;;;;;-4.49;61.47;98000.50;6240880;28;20045;-67
2023/03/31 02:02:58;;;;;;;7.75;3.42;;;;;;;-4.40;61.42;97995.47;6235535;28;19921;-67
2023/03/31 02:06:09;;;;;;;13.13;3.22;;;;;;;-4.37;61.39;97992.94;6232862;28;20068;-69
2023/03/31 02:09:24;;;;;;;10.48;3.28;;;;;;;-4.36;61.24;97976.66;6233365;28;20533;-66
2023/03/31 02:12:30;;;;;;;7.35;3.00;;;;;;;-4.33;61.30;97987.88;6232973;28;20052;-68
2023/03/31 02:15:43;;;;;;;10.63;4.40;;;;;;;-4.17;61.29;98003.44;6233536;28;20202;-67
2023/03/31 02:18:51;;;;;;;3.15;1.95;;;;;;;-4.00;60.67;97985.63;6233590;28;20046;-68
2023/03/31 02:22:02;;;;;;;11.60;4.00;;;;;;;-3.95;60.39;97984.00;6232592;28;20072;-67
2023/03/31 02:25:08;;;;;;;6.55;2.58;;;;;;;-3.88;60.43;98002.06;6231508;28;20038;-67
2023/03/31 02:28:14;;;;;;;6.45;2.65;;;;;;;-3.71;60.38;98003.94;6233379;28;20068;-66
2023/03/31 02:31:52;;;;;;;7.05;2.10;;;;;;;-3.63;60.18;97999.72;6232872;28;20041;-66
2023/03/31 02:34:54;;;;;;;6.00;2.13;;;;;;;-3.43;59.81;98007.63;6225599;28;20046;-67
2023/03/31 02:37:58;;;;;;;5.30;2.40;;;;;;;-3.17;59.26;97993.25;6232433;28;20519;-67
2023/03/31 02:41:04;;;;;;;12.98;2.72;;;;;;;-2.86;58.43;97992.59;6231427;28;20042;-68
2023/03/31 02:44:14;;;;;;;6.70;2.35;;;;;;;-2.74;57.86;98009.00;6233447;28;20091;-67
2023/03/31 02:47:20;;;;;;;10.15;2.78;;;;;;;-2.79;58.22;98000.38;6233286;28;20029;-67
2023/03/31 02:50:33;;;;;;;7.07;2.40;;;;;;;-2.87;57.99;98012.34;6231279;28;20037;-67
2023/03/31 02:54:07;;;;;;;12.75;3.08;;;;;;;-2.88;58.30;98020.91;6233060;28;20053;-68
2023/03/31 02:57:42;;;;;;;10.85;3.10;;;;;;;-2.79;58.12;98020.13;6219655;28;20060;-66
2023/03/31 03:01:00;;;;;;;10.40;2.80;;;;;;;-2.77;57.88;98002.97;6232366;28;20200;-67
2023/03/31 03:04:15;;;;;;;17.10;3.35;;;;;;;-2.64;58.24;98009.03;6234874;28;20065;-68
2023/03/31 03:07:22;;;;;;;14.40;2.80;;;;;;;-2.49;58.10;98019.44;6232010;28;20419;-66
2023/03/31 03:10:41;;;;;;;11.13;2.80;;;;;;;-2.22;57.29;98007.53;6237655;28;20092;-66
2023/03/31 03:13:42;;;;;;;8.45;2.55;;;;;;;-2.11;56.89;98011.00;6229358;28;20045;-65
2023/03/31 03:16:52;;;;;;;9.18;2.70;;;;;;;-2.16;56.81;98023.88;6230572;28;20049;-67
2023/03/31 03:19:59;;;;;;;7.65;2.85;;;;;;;-2.11;56.58;98029.06;6230045;28;20489;-66
2023/03/31 03:23:05;;;;;;;14.90;3.50;;;;;;;-1.98;56.71;98012.78;6231446;28;20423;-66
2023/03/31 03:26:12;;;;;;;14.57;3.03;;;;;;;-1.79;56.21;98007.66;6231097;28;20228;-67
2023/03/31 03:29:16;;;;;;;19.98;4.95;;;;;;;-1.67;55.69;98015.41;6240045;28;20030;-67
2023/03/31 03:32:19;;;;;;;15.70;4.25;;;;;;;-1.55;55.41;98007.69;6239602;28;20083;-67
2023/03/31 03:35:23;;;;;;;17.13;5.80;;;;;;;-1.45;55.85;97993.94;6237810;28;20038;-67
2023/03/31 03:38:27;;;;;;;13.23;2.97;;;;;;;-1.41;55.67;97980.19;6236418;28;20427;-68
2023/03/31 03:41:34;;;;;;;22.40;4.20;;;;;;;-1.18;55.46;97997.41;6238228;28;20037;-68
2023/03/31 03:44:40;;;;;;;12.13;3.47;;;;;;;-1.02;54.22;98004.28;6239264;28;20057;-67
2023/03/31 03:47:41;;;;;;;15.10;3.22;;;;;;;-1.03;54.29;97987.03;6239152;28;20053;-67
2023/03/31 03:50:48;;;;;;;7.40;3.08;;;;;;;-1.08;54.80;97999.09;6239362;28;20041;-67
2023/03/31 03:53:55;;;;;;;14.82;3.03;;;;;;;-1.21;54.69;98002.56;6240396;28;20054;-68
2023/03/31 03:56:59;;;;;;;14.25;3.08;;;;;;;-1.34;54.80;97985.34;6238064;28;20060;-67
2023/03/31 04:00:09;;;;;;;8.18;2.65;;;;;;;-1.41;55.33;97995.66;6237648;28;20111;-68
2023/03/31 04:03:13;;;;;;;10.27;2.75;;;;;;;-1.34;55.06;98001.69;6230970;28;20045;-70
2023/03/31 10:15:25;;;;;;;18.92;4.30;;;;;;;5.30;37.40;97784.53;6304005;27;2113564;-70
2023/03/31 10:18:40;;;;;;;14.38;3.67;;;;;;;5.69;37.35;97804.25;6353951;28;20031;-81
2023/03/31 10:21:49;;;;;;;7.47;2.80;;;;;;;5.81;37.80;97830.84;6354942;28;20039;-75
2023/03/31 10:24:53;;;;;;;5.63;2.00;;;;;;;5.78;38.25;97830.94;6334857;28;20136;-71
2023/03/31 10:28:00;;;;;;;10.00;2.67;;;;;;;5.51;38.17;97827.41;6343177;28;20054;-74
2023/03/31 10:31:04;;;;;;;6.50;2.53;;;;;;;5.25;39.21;97862.06;6345974;28;20040;-70
2023/03/31 10:34:15;;;;;;;11.43;3.58;;;;;;;5.26;39.45;97868.16;6356867;28;20039;-69
2023/03/31 10:37:25;;;;;;;9.00;3.35;;;;;;;5.11;39.50;97877.25;6348901;28;20047;-69
2023/03/31 10:40:34;;;;;;;7.65;3.15;;;;;;;4.92;39.66;97879.47;6348546;28;20050;-70
2023/03/31 10:43:40;;;;;;;4.88;2.70;;;;;;;4.58;40.70;97879.50;6341529;28;20592;-69
2023/03/31 10:46:51;;;;;;;8.98;3.78;;;;;;;4.50;40.87;97833.63;6349336;28;20522;-70
2023/03/31 10:49:56;;;;;;;9.57;4.13;;;;;;;4.63;40.77;97763.78;6346413;28;20086;-69
2023/03/31 10:53:12;;;;;;;13.40;4.25;;;;;;;4.85;40.89;97731.91;6330141;28;20051;-67
2023/03/31 10:56:30;;;;;;;17.92;5.20;;;;;;;5.03;40.57;97730.53;6356207;28;20485;-69
2023/03/31 10:59:46;;;;;;;7.47;3.50;;;;;;;5.14;40.08;97840.66;6350936;28;20047;-69
2023/03/31 11:03:03;;;;;;;13.55;4.82;;;;;;;5.21;40.25;97833.50;6347669;28;20504;-69
2023/03/31 11:06:44;;;;;;;10.82;4.50;;;;;;;5.03;40.45;97824.44;6349316;28;20027;-70
2023/03/31 11:10:14;;;;;;;10.95;5.35;;;;;;;4.92;40.84;97875.13;6348049;28;20050;-69
2023/03/31 11:13:32;;;;;;;13.43;4.78;;;;;;;4.72;41.38;97859.13;6341333;28;20055;-70
2023/03/31 11:17:03;;;;;;;14.88;5.25;;;;;;;4.73;41.76;97835.66;6343636;28;20036;-68
2023/03/31 11:20:36;;;;;;;20.10;5.65;;;;;;;4.64;42.25;97801.13;6314002;28;20052;-70
2023/03/31 11:23:45;;;;;;;;;;;;;;;4.73;41.70;97774.84;6356013;28;20039;-68
2023/03/31 11:27:12;;;;;;;14.23;5.25;;;;;;;4.75;42.32;97786.06;6292238;28;20292;-70
2023/03/31 11:30:52;;;;;;;11.93;5.53;;;;;;;4.68;43.32;97797.56;6340656;28;20699;-70
2023/03/31 11:34:16;;;;;;;10.30;4.85;;;;;;;4.60;44.17;97778.66;6243694;28;20049;-70
2023/03/31 11:37:48;;;;;;;14.95;5.53;;;;;;;4.58;45.62;97756.97;6325680;28;20063;-69
2023/03/31 11:41:01;;;;;;;11.30;5.72;;;;;;;4.53;45.60;97740.59;6321924;28;20050;-69
2023/03/31 11:44:11;;;;;;;14.70;5.15;;;;;;;4.47;45.97;97739.91;6309078;28;20048;-69
2023/03/31 11:47:21;;;;;;;12.45;5.72;;;;;;;4.44;46.21;97736.50;6346367;28;20075;-71
2023/03/31 11:50:29;;;;;;;14.38;6.68;;;;;;;4.40;46.47;97729.66;6314861;28;20093;-70
2023/03/31 11:53:35;;;;;;;15.98;6.78;;;;;;;4.33;46.70;97728.09;6346309;28;20043;-70
2023/03/31 11:56:40;;;;;;;8.18;5.50;;;;;;;4.36;46.56;97708.06;6346373;28;20404;-69
2023/03/31 11:59:48;;;;;;;10.90;5.25;;;;;;;4.37;46.31;97717.56;6323258;28;20055;-69
2023/03/31 12:03:27;;;;;;;8.43;4.18;;;;;;;4.40;46.43;97743.53;6338753;28;20055;-69
2023/03/31 12:06:38;;;;;;;8.95;2.92;;;;;;;4.33;46.40;97757.66;6290263;28;20050;-69
2023/03/31 12:09:52;;;;;;;7.20;3.08;;;;;;;4.27;46.79;97770.81;6345349;28;20043;-69
2023/03/31 12:13:01;;;;;;;5.88;2.65;;;;;;;4.14;47.02;97740.78;6346063;28;20052;-69
2023/03/31 12:16:13;;;;;;;5.45;2.83;;;;;;;4.10;47.62;97742.56;6324629;28;20047;-69
2023/03/31 12:19:35;;;;;;;9.93;5.28;;;;;;;4.17;47.63;97738.09;6321333;28;20040;-70
2023/03/31 12:22:43;;;;;;;7.45;4.60;;;;;;;4.18;47.76;97740.63;6339061;28;20043;-69
2023/03/31 12:26:12;;;;;;;11.65;4.47;;;;;;;4.15;48.32;97729.44;6331280;28;20040;-69
2023/03/31 12:29:30;;;;;;;8.27;4.07;;;;;;;4.13;48.88;97694.75;6307740;28;20052;-67
2023/03/31 12:32:39;;;;;;;8.82;3.97;;;;;;;4.18;48.87;97717.19;6327482;28;20051;-68
2023/03/31 12:35:52;;;;;;;7.38;3.50;;;;;;;4.23;48.52;97803.06;6323720;28;20546;-69
2023/03/31 12:39:30;;;;;;;5.10;3.10;;;;;;;4.33;48.30;97795.84;6320781;28;20040;-70
2023/03/31 12:43:02;;;;;;;6.55;2.78;;;;;;;4.04;49.17;97780.03;6327659;28;20036;-69
2023/03/31 12:46:24;;;;;;;5.60;2.83;;;;;;;3.80;49.63;97772.84;6318843;28;20090;-68
2023/03/31 12:49:49;;;;;;;11.65;2.85;;;;;;;3.80;49.99;97765.03;6320629;28;20044;-70
2023/03/31 12:53:18;;;;;;;4.25;2.58;;;;;;;3.89;49.69;97745.72;6320946;28;20051;-69
2023/03/31 12:56:22;;;;;;;6.85;3.10;;;;;;;3.93;49.65;97740.38;6322267;28;20044;-73
2023/03/31 13:00:07;;;;;;;5.70;3.63;;;;;;;3.95;49.77;97759.44;6338176;28;20032;-68
2023/03/31 13:03:47;;;;;;;8.20;3.30;;;;;;;3.92;50.45;97764.72;6335144;28;20521;-67
2023/03/31 13:06:58;;;;;;;10.25;3.83;;;;;;;3.94;50.35;97775.97;6240238;28;20426;-68
2023/03/31 13:10:23;;;;;;;9.13;3.78;;;;;;;3.95;50.46;97777.66;6322025;28;20044;-69
2023/03/31 13:13:27;;;;;;;9.35;3.42;;;;;;;3.91;50.10;97757.81;6338365;28;20146;-68
2023/03/31 13:16:34;;;;;;;9.32;3.88;;;;;;;3.99;50.55;97748.06;6341922;28;20039;-68
2023/03/31 13:19:40;;;;;;;17.40;4.30;;;;;;;4.05;50.65;97758.34;6329393;28;20054;-69
2023/03/31 13:22:49;;;;;;;18.50;6.05;;;;;;;4.16;50.23;97750.25;6334759;28;20245;-69
2023/03/31 13:25:55;;;;;;;20.25;5.55;;;;;;;4.16;50.21;97757.19;6301223;28;20048;-68
2023/03/31 13:29:17;;;;;;;14.15;4.97;;;;;;;4.16;50.21;97778.03;6321278;28;20039;-68
2023/03/31 13:32:24;;;;;;;15.45;4.85;;;;;;;4.05;50.02;97765.31;6341908;28;20046;-68
2023/03/31 13:35:31;;;;;;;17.88;5.07;;;;;;;3.95;50.48;97775.06;6323918;28;20055;-68
2023/03/31 13:38:36;;;;;;;13.80;3.88;;;;;;;3.98;50.57;97774.13;6337296;28;20479;-74
2023/03/31 13:42:11;;;;;;;16.90;4.35;;;;;;;3.92;50.30;97775.16;6335981;28;20039;-69
2023/03/31 13:45:36;;;;;;;28.60;5.15;;;;;;;3.95;50.56;97780.28;6338954;28;20048;-74
2023/03/31 13:48:38;;;;;;;22.77;5.07;;;;;;;3.95;50.40;97785.47;6322060;28;20145;-75
2023/03/31 13:52:01;;;;;;;24.15;6.22;;;;;;;3.92;50.96;97756.91;6328557;28;20039;-73
2023/03/31 13:55:06;;;;;;;20.70;4.90;;;;;;;3.84;50.93;97756.25;6333592;28;20378;-66
2023/03/31 13:58:16;;;;;;;23.95;5.05;;;;;;;3.77;51.06;97744.28;6326693;28;20044;-67
2023/03/31 14:01:20;;;;;;;15.32;3.35;;;;;;;3.66;51.22;97735.88;6323523;28;20396;-67
2023/03/31 14:04:45;;;;;;;15.98;3.53;;;;;;;3.59;51.51;97733.41;6341944;28;20040;-66
2023/03/31 14:07:53;;;;;;;16.75;3.25;;;;;;;3.49;52.08;97721.50;6337759;28;20039;-68
2023/03/31 14:11:15;;;;;;;13.70;4.05;;;;;;;3.42;52.09;97706.06;6340334;28;20040;-70
2023/03/31 14:14:22;;;;;;;13.02;3.55;;;;;;;3.34;52.22;97706.22;6327658;28;20047;-63
2023/03/31 14:17:36;;;;;;;13.25;3.67;;;;;;;3.33;53.04;97717.53;6331531;28;20063;-65
2023/03/31 14:21:10;;;;;;;13.55;3.17;;;;;;;3.33;52.93;97712.31;6330124;28;20040;-65
2023/03/31 14:24:26;;;;;;;16.00;7.00;;;;;;;3.34;53.10;97734.84;6331520;28;20052;-65
2023/03/31 14:28:01;;;;;;;21.60;5.05;;;;;;;3.31;53.29;97751.41;6339810;28;20044;-64
2023/03/31 14:31:25;;;;;;;21.33;4.35;;;;;;;3.27;53.86;97741.06;6321404;28;20047;-64
2023/03/31 14:34:49;;;;;;;18.17;3.90;;;;;;;3.22;53.89;97735.13;6303987;28;20044;-65
2023/03/31 14:37:53;;;;;;;16.27;4.55;;;;;;;3.08;54.19;97723.25;6323614;28;20504;-65
2023/03/31 14:40:59;;;;;;;13.55;4.03;;;;;;;2.93;54.36;97708.84;6322576;28;20439;-65
2023/03/31 14:44:06;;;;;;;12.70;3.65;;;;;;;2.88;55.04;97707.22;6321061;28;20040;-65
2023/03/31 14:47:21;;;;;;;7.95;3.03;;;;;;;2.74;55.93;97694.50;6327927;28;20040;-65
2023/03/31 14:50:35;;;;;;;3.47;1.98;;;;;;;2.51;55.94;97694.97;6330859;28;20369;-68
2023/03/31 14:53:39;;;;;;;7.20;2.20;;;;;;;2.39;56.49;97697.81;6333566;28;20043;-67
2023/03/31 14:56:51;;;;;;;8.05;2.95;;;;;;;2.22;57.19;97709.38;6329119;28;20043;-68
2023/03/31 14:59:56;;;;;;;4.38;2.30;;;;;;;2.09;57.25;97720.84;6321167;28;20400;-69
2023/03/31 15:03:06;;;;;;;4.72;2.45;;;;;;;1.97;57.50;97739.25;6335757;28;20208;-70
2023/03/31 15:06:11;;;;;;;5.50;2.20;;;;;;;1.84;58.18;97740.31;6346096;28;20039;-70
2023/03/31 15:09:48;;;;;;;6.65;2.47;;;;;;;1.76;58.80;97725.75;6325737;28;20044;-70
2023/03/31 15:12:51;;;;;;;5.25;2.63;;;;;;;1.61;58.53;97725.97;6320393;28;20051;-68
2023/03/31 15:15:57;;;;;;;6.35;3.33;;;;;;;1.53;59.17;97753.78;6330594;28;20052;-70
2023/03/31 15:19:18;;;;;;;7.32;2.90;;;;;;;1.49;59.55;97741.72;6340176;28;20043;-70
2023/03/31 15:22:24;;;;;;;6.40;2.50;;;;;;;1.16;59.76;97699.88;6326344;28;20047;-71
2023/03/31 15:25:36;;;;;;;8.68;3.95;;;;;;;1.52;60.09;97726.13;6305762;28;20040;-70
2023/03/31 15:28:49;;;;;;;8.32;3.38;;;;;;;1.58;59.47;97726.03;6307800;28;20543;-71
2023/03/31 15:31:55;;;;;;;6.00;3.00;;;;;;;1.61;59.43;97730.31;6345949;28;20036;-70
2023/03/31 15:35:03;;;;;;;6.82;3.60;;;;;;;1.61;60.01;97725.97;6327009;28;20039;-70
2023/03/31 15:38:10;;;;;;;12.65;7.43;;;;;;;1.59;59.63;97726.91;6328062;28;20040;-71
2023/03/31 15:41:16;;;;;;;9.00;3.92;;;;;;;1.61;60.18;97736.34;6343808;28;20039;-75
2023/03/31 15:44:42;;;;;;;6.40;3.65;;;;;;;1.66;60.39;97744.06;6346886;28;20035;-75
2023/03/31 15:47:51;;;;;;;5.22;2.80;;;;;;;1.67;60.00;97745.78;6323427;28;20407;-75
2023/03/31 15:51:06;;;;;;;7.13;4.32;;;;;;;1.79;59.62;97746.47;6339019;28;20040;-76
2023/03/31 15:54:28;;;;;;;5.10;3.25;;;;;;;1.94;60.18;97737.56;6330924;28;20048;-75
2023/03/31 15:57:35;;;;;;;6.68;4.20;;;;;;;1.96;59.71;97737.53;6324688;28;20711;-76
2023/03/31 16:00:38;;;;;;;5.07;3.47;;;;;;;2.02;59.73;97734.84;6321811;28;20036;-74
2023/03/31 16:03:40;;;;;;;5.55;3.88;;;;;;;2.04;59.31;97740.88;6321352;28;20054;-75
2023/03/31 16:06:49;;;;;;;7.20;3.92;;;;;;;2.08;59.22;97742.53;6332202;28;20118;-76
2023/03/31 16:10:13;;;;;;;5.53;3.13;;;;;;;2.09;59.63;97739.03;6331265;28;20115;-74
2023/03/31 16:13:23;;;;;;;6.90;3.58;;;;;;;2.08;59.81;97741.66;6322435;28;20052;-75
2023/03/31 16:16:28;;;;;;;7.55;3.35;;;;;;;2.14;59.42;97742.41;6328825;28;20130;-74
2023/03/31 16:19:47;;;;;;;5.47;3.42;;;;;;;2.16;59.73;97747.59;6320774;28;20567;-76
2023/03/31 16:22:57;;;;;;;6.75;3.13;;;;;;;2.05;59.96;97737.38;6327415;28;20050;-75
2023/03/31 16:26:05;;;;;;;7.35;2.92;;;;;;;2.02;59.80;97748.66;6315792;28;20048;-75
2023/03/31 16:29:24;;;;;;;7.97;3.53;;;;;;;2.05;60.82;97742.56;6306453;28;20044;-75
2023/03/31 16:32:30;;;;;;;4.60;3.00;;;;;;;2.05;60.08;97741.72;6331404;28;20047;-75
2023/03/31 16:35:42;;;;;;;7.18;2.90;;;;;;;2.16;59.98;97751.03;6323465;28;20051;-75
2023/03/31 16:38:44;;;;;;;3.97;3.10;;;;;;;2.18;59.94;97757.06;6340307;28;20031;-75
2023/03/31 16:41:47;;;;;;;3.85;2.58;;;;;;;2.26;59.89;97762.09;6339748;28;20050;-73
2023/03/31 16:44:55;;;;;;;5.35;2.60;;;;;;;2.32;59.58;97755.94;6334685;28;20180;-70
2023/03/31 16:48:03;;;;;;;6.50;2.50;;;;;;;2.10;59.92;97709.59;6305798;28;20047;-70
2023/03/31 16:51:05;;;;;;;5.45;2.83;;;;;;;2.43;59.71;97767.84;6322100;28;20036;-71
2023/03/31 16:54:10;;;;;;;6.00;2.72;;;;;;;2.45;59.56;97760.03;6327851;28;20451;-70
2023/03/31 16:57:14;;;;;;;6.35;2.33;;;;;;;2.51;59.33;97762.53;6331709;28;20043;-71
2023/03/31 17:00:16;;;;;;;3.70;2.50;;;;;;;2.53;59.47;97759.91;6324804;28;20047;-71
2023/03/31 17:03:20;;;;;;;6.20;2.35;;;;;;;2.55;59.40;97764.19;6333871;28;20066;-70
2023/03/31 17:06:22;;;;;;;5.57;2.67;;;;;;;2.59;59.37;97754.59;6290263;28;20036;-71
2023/03/31 17:09:26;;;;;;;5.50;2.53;;;;;;;2.57;59.31;97746.81;6331443;28;20505;-70
2023/03/31 17:12:31;;;;;;;6.70;2.25;;;;;;;2.61;59.51;97752.84;6326425;28;20566;-71
2023/03/31 17:15:34;;;;;;;5.20;2.67;;;;;;;2.59;58.91;97752.84;6323364;28;20144;-71
2023/03/31 17:18:44;;;;;;;5.50;2.83;;;;;;;2.64;59.57;97758.81;6315142;28;20047;-71
2023/03/31 17:21:50;;;;;;;4.43;2.80;;;;;;;2.63;59.22;97762.31;6319635;28;20055;-70
2023/03/31 17:24:59;;;;;;;7.95;2.90;;;;;;;2.62;59.13;97750.19;6306341;28;20043;-71
2023/03/31 17:28:05;;;;;;;6.38;3.38;;;;;;;2.64;59.66;97758.81;6325270;28;20078;-71
2023/03/31 17:31:15;;;;;;;5.18;2.92;;;;;;;2.59;59.60;97750.25;6333722;28;20397;-70
2023/03/31 17:34:20;;;;;;;6.72;2.80;;;;;;;2.66;59.29;97745.78;6338797;28;20476;-71
2023/03/31 17:37:26;;;;;;;6.40;2.95;;;;;;;2.64;59.58;97747.56;6323959;28;20043;-71
2023/03/31 17:40:32;;;;;;;7.05;2.72;;;;;;;2.66;59.62;97750.97;6319080;28;20051;-70
2023/03/31 17:43:45;;;;;;;14.38;5.65;;;;;;;2.65;59.77;97744.94;6319386;28;20040;-70
2023/03/31 17:46:50;;;;;;;10.32;4.65;;;;;;;2.62;59.59;97739.78;6321512;28;20074;-71
2023/03/31 17:49:57;;;;;;;11.90;4.05;;;;;;;2.65;59.87;97729.34;6343324;28;20043;-70
2023/03/31 17:52:59;;;;;;;6.15;3.20;;;;;;;2.58;59.54;97727.75;6331966;28;20041;-71
2023/03/31 17:56:03;;;;;;;;;;;;;;;2.68;59.16;97744.00;6321511;28;20055;-71
2023/03/31 17:59:04;;;;;;;21.67;7.15;;;;;;;2.61;59.22;97748.47;6318764;28;19919;-70
2023/03/31 18:02:14;;;;;;;25.58;9.60;;;;;;;2.48;59.84;97734.84;6332190;28;20044;-70
2023/03/31 18:05:18;;;;;;;28.23;10.70;;;;;;;2.43;60.16;97744.47;6332286;28;20044;-71
2023/03/31 18:08:24;;;;;;;33.00;12.98;;;;;;;2.33;60.42;97742.94;6323999;28;20078;-69
2023/03/31 18:11:27;;;;;;;29.08;12.50;;;;;;;2.20;61.01;97737.09;6319260;28;20032;-70
2023/03/31 18:14:31;;;;;;;31.42;12.95;;;;;;;2.18;61.52;97744.09;6317885;28;20069;-70
2023/03/31 18:17:38;;;;;;;30.90;13.98;;;;;;;2.12;61.37;97744.16;6319776;28;20036;-70
2023/03/31 18:20:45;;;;;;;26.17;11.95;;;;;;;2.13;61.52;97748.50;6307295;28;20036;-70
2023/03/31 18:23:53;;;;;;;23.80;10.40;;;;;;;2.11;61.31;97742.47;6321447;28;20560;-70
2023/03/31 18:26:57;;;;;;;18.70;9.18;;;;;;;1.99;61.55;97738.34;6314315;28;20134;-70
2023/03/31 18:29:58;;;;;;;21.38;9.00;;;;;;;1.98;61.45;97744.44;6324933;28;20036;-69
2023/03/31 18:33:02;;;;;;;19.23;8.93;;;;;;;1.91;61.99;97740.22;6339474;28;20043;-71
2023/03/31 18:36:08;;;;;;;21.67;8.15;;;;;;;1.88;61.99;97729.88;6330492;28;20150;-67
2023/03/31 18:39:15;;;;;;;16.90;8.38;;;;;;;1.85;62.40;97726.47;6325318;28;20493;-67
2023/03/31 18:42:23;;;;;;;17.17;8.25;;;;;;;1.83;62.40;97725.66;6320846;28;20036;-67
2023/03/31 18:45:29;;;;;;;22.42;8.75;;;;;;;1.83;62.42;97725.66;6334574;28;20407;-68
2023/03/31 18:48:31;;;;;;;17.35;8.70;;;;;;;1.86;62.56;97720.41;6318325;28;20044;-67
2023/03/31 18:51:34;;;;;;;;;;;;;;;1.91;61.71;97713.41;6326314;28;20035;-67
2023/03/31 18:54:41;;;;;;;27.23;9.25;;;;;;;1.88;62.13;97713.47;6333557;28;20018;-68
2023/03/31 18:57:48;;;;;;;19.30;9.05;;;;;;;1.84;62.09;97711.78;6338633;28;20048;-66
2023/03/31 19:00:55;;;;;;;19.02;8.05;;;;;;;1.83;62.76;97707.47;6329960;28;20040;-67
2023/03/31 19:04:05;;;;;;;18.92;8.60;;;;;;;1.80;62.97;97706.63;6330028;28;20035;-68
2023/03/31 19:07:06;;;;;;;19.92;9.23;;;;;;;1.82;62.79;97696.25;6323173;28;20040;-69
2023/03/31 19:10:08;;;;;;;38.28;20.00;;;;;;;1.73;63.14;97689.47;6324170;28;20036;-67
2023/03/31 19:13:17;;;;;;;14.63;8.50;;;;;;;1.74;62.87;97691.19;6336461;28;20550;-68
2023/03/31 19:16:19;;;;;;;22.27;8.82;;;;;;;1.69;63.05;97682.59;6332939;28;20059;-68
2023/03/31 19:19:21;;;;;;;18.77;8.43;;;;;;;1.64;63.59;97674.03;6335343;28;20063;-68
2023/03/31 19:22:26;;;;;;;22.83;8.98;;;;;;;1.60;63.50;97677.59;6319599;28;20044;-66
2023/03/31 19:25:35;;;;;;;19.88;8.90;;;;;;;1.60;63.39;97682.75;6329694;28;20036;-67
2023/03/31 19:28:39;;;;;;;14.73;7.05;;;;;;;1.57;63.78;97678.47;6322923;28;20036;-67
2023/03/31 19:31:46;;;;;;;12.15;5.88;;;;;;;1.54;63.83;97668.16;6347650;28;20039;-67
2023/03/31 19:34:47;;;;;;;12.25;5.15;;;;;;;1.47;63.76;97670.88;6329672;28;20427;-68
2023/03/31 19:37:52;;;;;;;;;;;;;;;1.40;63.69;97674.47;6305908;28;20451;-70
2023/03/31 19:40:53;;;;;;;7.05;4.13;;;;;;;1.31;64.42;97684.09;6331399;28;19927;-68
2023/03/31 19:43:54;;;;;;;8.00;3.95;;;;;;;1.28;64.21;97670.31;6347888;28;20051;-71
2023/03/31 19:47:01;;;;;;;6.85;4.10;;;;;;;1.25;64.88;97660.84;6328687;28;20063;-65
2023/03/31 19:50:03;;;;;;;9.60;4.05;;;;;;;1.28;64.19;97665.97;6332791;28;20028;-63
2023/03/31 19:53:06;;;;;;;5.63;3.60;;;;;;;1.26;64.82;97667.75;6332255;28;20036;-65
2023/03/31 19:56:14;;;;;;;7.45;3.95;;;;;;;1.21;64.48;97669.53;6340214;28;20063;-64
2023/03/31 19:59:16;;;;;;;8.60;3.92;;;;;;;1.17;64.56;97662.69;6330106;28;20169;-63
2023/03/31 20:02:21;;;;;;;7.28;4.07;;;;;;;0.97;65.25;97649.19;6322310;28;20044;-64
2023/03/31 20:05:29;;;;;;;16.05;7.25;;;;;;;0.89;65.47;97668.25;6321204;28;20039;-65
2023/03/31 20:08:31;;;;;;;18.95;8.07;;;;;;;0.75;65.35;97651.19;6329602;28;20043;-65
2023/03/31 20:11:35;;;;;;;17.45;7.90;;;;;;;0.70;65.71;97646.06;6324359;28;20078;-63
2023/03/31 20:14:38;;;;;;;23.88;8.70;;;;;;;0.60;66.69;97647.09;6334895;28;20052;-65
2023/03/31 20:17:45;;;;;;;15.15;8.00;;;;;;;0.54;65.81;97653.19;6339119;28;20036;-63
2023/03/31 20:20:48;;;;;;;17.27;8.40;;;;;;;0.49;66.33;97651.53;6326058;28;20043;-64
2023/03/31 20:23:53;;;;;;;17.95;8.15;;;;;;;0.41;66.85;97644.72;6333570;28;20485;-64
2023/03/31 20:26:57;;;;;;;15.13;8.23;;;;;;;0.32;66.56;97655.19;6339557;28;20036;-64
2023/03/31 20:30:02;;;;;;;15.38;8.85;;;;;;;0.25;67.19;97650.09;6321339;28;20032;-63
2023/03/31 20:33:07;;;;;;;19.17;8.75;;;;;;;0.18;67.45;97641.56;6321215;28;20047;-65
2023/03/31 20:36:11;;;;;;;18.15;9.27;;;;;;;0.14;67.47;97647.63;6320940;28;20074;-63
2023/03/31 20:39:15;;;;;;;16.77;8.07;;;;;;;0.06;67.43;97652.00;6311779;28;20409;-64
2023/03/31 20:42:17;;;;;;;;;;;;;;;-0.01;67.15;97638.28;6340773;28;20388;-63
2023/03/31 20:45:21;;;;;;;15.38;7.47;;;;;;;-0.10;67.58;97621.16;6338896;28;20428;-63
2023/03/31 20:48:25;;;;;;;13.88;7.70;;;;;;;-0.10;67.86;97620.28;6320994;28;20032;-65
2023/03/31 20:51:32;;;;;;;12.60;6.97;;;;;;;-0.17;67.93;97619.50;6320232;28;20044;-64
2023/03/31 20:54:34;;;;;;;12.38;6.20;;;;;;;-0.18;68.30;97617.78;6343438;28;20040;-64
2023/03/31 20:57:38;;;;;;;11.75;6.30;;;;;;;-0.20;68.29;97624.69;6323931;28;20264;-64
2023/03/31 21:00:44;;;;;;;12.57;5.95;;;;;;;-0.24;67.92;97610.09;6331423;28;20036;-64
2023/03/31 21:03:48;;;;;;;11.20;5.93;;;;;;;-0.28;68.34;97600.66;6326943;28;20348;-63
2023/03/31 21:06:53;;;;;;;12.77;6.10;;;;;;;-0.31;68.45;97606.72;6320319;28;20116;-64
2023/03/31 21:09:54;;;;;;;9.65;4.82;;;;;;;-0.34;68.23;97611.03;6302498;28;20043;-64